Home Music Articles Forums Blog Chat More...      
DJ WERD
(LIVE HIPHOP)


Member Since: Friday, June 16 2006 @ 02:49 PM CDT
Contact: send a note
Homepage: http://yofriend.tumblr.com
Location: Aptos, California Milky Way Galaxy
Song Comments: 635
Song Votes: 112
Forum Posts: 10
Weekly Points: 0.00
Total Points: 2494.30
Bio:
started with garageband in 2003, mac jamming since 2006, started breakdance class in 1998. peeping the knowledge of Hip Hop through the elements of Graffiti, Disc Jock, BBoyin' BGirlin'& Emceein'along with knowledge, wisdom understanding in the words of Afrika Bambaataa, peace love unity having fun. Always learning.

3hr 38minute mix of rough beats at: http://www.mixcloud.com/alex-werd/rahu-maha-dasa-beats/
download at: http://www.mediafire.com/listen/xn86ft9f9x0bebl/Rahu.mp3

thank you for your time!
Alex
DJ WERD's Songs (108)
Date Title Rating Hits Genre Last Comment Status
08.17.14 kama away from dharma 0.00 (0) 966 (4) Downtempo 09.18.14 Active
05.25.14 81 Transforming 0.00 (0) 663 (0) Trip Hop N/A Active
05.03.14 114 so funky its just an independent funk 0.00 (0) 550 (0) Hip Hop-Rap N/A Active
04.30.14 123 swinging piper soul remix 0.00 (0) 838 (4) Breakbeat 05.01.14 Active
02.26.14 8 of Cups 0.00 (0) 585 (3) Dancehall 03.09.14 Active
02.11.14 92 Internal Eyes instrumental 0.00 (0) 563 (1) Hip Hop-Rap 02.15.14 Active
01.07.14 156 deep stufz dubby 0.00 (0) 588 (2) Dub 01.10.14 Active
11.27.13 95_instrumental for seeking 0.00 (0) 749 (3) Trip Hop 12.01.13 Active
11.19.13 93_sweep kitchen 0.00 (0) 513 (0) Hip Hop-Rap N/A Active
11.12.13 64_no thanks im driving 0.00 (0) 818 (2) Dance-Club 11.13.13 Active
11.10.13 124my song7_funky chopped stew 0.00 (0) 677 (2) Hip Hop-Rap 11.11.13 Active
10.24.13 108_timid space beats 0.00 (0) 678 (3) Trip Hop 07.14.14 Active
09.07.13 92 Next Swinging Crossroads 0.00 (0) 578 (0) Trip Hop N/A Active
09.07.13 90_swing to swing 0.00 (0) 622 (1) Trip Hop 09.30.13 Active
06.12.13 atman traveler's jungle mix 0.00 (0) 809 (5) Jungle 10.24.13 Active
06.12.13 120 Traveler's Dub 0.00 (0) 695 (4) Downtempo 06.28.13 Active
06.12.13 atman instrumental 0.00 (0) 705 (3) Trip Hop 08.27.13 Active
06.02.13 grow old together 0.00 (0) 572 (0) Dance-Club N/A Active
06.02.13 sly boogie 0.00 (0) 711 (0) Funk N/A Active
05.28.13 skankin' 0.00 (0) 860 (10) Trip Hop 09.05.13 Active
05.11.13 feelings explained 1 0.00 (0) 723 (3) Breakbeat 05.18.13 Active
04.06.13 blue flew 0.00 (0) 914 (6) Trip Hop 04.12.13 Active
11.04.12 thank you jungle (i smoke weed) 0.00 (0) 949 (6) Jungle 11.07.12 Active
02.17.12 81_we have a nice night people 0.00 (0) 1277 (5) Hip Hop-Rap 06.11.12 Active
12.21.11 Food Train Homies 0.00 (0) 1113 (1) Experimental 03.13.13 Active
11.12.11 zeolora 8.00 (1) 1111 (5) Ambient 12.21.11 Active
04.07.11 96 Mononoke 0.00 (0) 1538 (2) Hip Hop-Rap 11.13.11 Active
04.06.11 100 Early Childhood Funk 0.00 (0) 1342 (2) Hip Hop-Rap 04.13.11 Active
03.28.11 98 vaudeville, 83 zagreb, 86 riskeo, 94 ghettoriginals 0.00 (0) 1295 (2) Hip Hop-Rap 03.29.11 Active
03.06.11 75 Spring Break Dub 0.00 (0) 1327 (4) Dub 03.15.11 Active
09.05.10 23 Lexington Avenue (100 BPM, 6 minutes of FUNK groove) 8.00 (2) 1556 (4) Funk 10.23.10 Active
07.02.10 108 ZITA 8.50 (1) 1576 (3) Funk 09.02.10 Active
04.17.10 1 9.63 (2) 1791 (5) Ringtones 10.30.10 Active
02.22.10 yess radio, funkable. joy % possibly, 8.88 (2) 2047 (7) Hip Hop-Rap 10.23.10 Active
11.04.09 YO 808 vol. H20 - ext. homospien mannifestation 0.00 (0) 1904 (5) Hip Hop-Rap 01.31.10 Active
10.18.09 Man Sweater (of up state) 0.00 (0) 1589 (4) Dance-Club 01.31.10 Active
10.17.09 KIDZ & country 0.00 (0) 1696 (7) Hip Hop-Rap 03.29.11 Active
08.25.09 WAXears 0.00 (0) 1819 (7) Hip Hop-Rap 10.13.09 Active
08.13.09 Y>>>>>> , 10.00 (1) 1447 (6) Funk 08.18.09 Active
08.07.09 &ya 0.00 (0) 1425 (8) Hip Hop-Rap 08.12.09 Active
06.22.09 100 moons 0.00 (0) 2084 (7) Hip Hop-Rap 10.17.09 Active
06.22.09 I 0.00 (0) 1715 (5) Hip Hop-Rap 05.05.13 Active
05.17.09 We Jamin' Macintosh 10.00 (1) 1811 (8) Hip Hop-Rap 09.09.09 Active
03.02.09 Watch For Air 0.00 (0) 1954 (7) Film Scoring 03.06.09 Active
09.23.08 Responsibilities 0.00 (0) 2471 (3) Hip Hop-Rap 08.18.09 Active
09.19.08 Love For Beats 0.00 (0) 2020 (9) Hip Hop-Rap 07.15.09 Active
01.09.08 Sonata Feat. Chief Thunder Bear 8.93 (7) 2962 (12) Hip Hop-Rap 01.23.10 Active
12.09.07 Rock Hard Tymes feat. T-PAIN!!!! 9.00 (3) 2469 (8) Comedy-Satire-Parody 06.22.09 Active
11.20.07 I Can Make You Fly 9.22 (9) 4143 (19) Trip Hop 12.23.08 Active
11.19.07 Poppa Was A Rolling Stone 8.25 (1) 1746 (5) Hip Hop-Rap 12.07.07 Active
11.18.07 Top O' Da Marnin' 0.00 (0) 2115 (6) Hip Hop-Rap 02.01.12 Active
11.18.07 Pump That Bass 0.00 (0) 2174 (3) Hip Hop-Rap 11.25.07 Active
11.11.07 You Thought Wrong 7.92 (3) 2133 (10) Hip Hop-Rap 11.24.07 Active
11.10.07 Grave Yards 8.00 (1) 1953 (10) Hip Hop-Rap 02.10.12 Active
10.28.07 trees 9.13 (4) 2143 (17) Classical 05.17.09 Active
08.27.07 A Female Deer 8.95 (5) 3408 (12) Electropop 04.15.08 Active
08.22.07 Ready Set Go 7.50 (2) 2378 (9) Hip Hop-Rap 10.31.07 Active
08.21.07 We Need A Beat 9.13 (4) 2200 (5) Electropop 02.10.10 Active
08.20.07 Sneak Attack 9.15 (5) 2963 (14) Hip Hop-Rap 10.25.10 Active
08.11.07 Listen Good 9.50 (4) 2989 (5) Hip Hop-Rap 11.23.07 Active
08.05.07 Sexually Transmited Diabetes 9.25 (4) 2417 (5) Rhythm and Blues 08.16.07 Active
07.30.07 Morning 8.42 (3) 2175 (6) Piano 08.02.07 Active
07.21.07 Beat Box Burny 8.38 (4) 2675 (12) Hip Hop-Rap 08.25.09 Active
07.05.07 Do I Feel Lucky 8.25 (1) 2119 (4) Hip Hop-Rap 07.07.07 Active
07.03.07 Oxygen by: Epidemic 9.25 (2) 2218 (8) Hip Hop-Rap 07.05.07 Active
07.01.07 Drum N Space 8.25 (1) 2425 (7) Drum n Bass 12.16.07 Active
06.28.07 Say What 0.00 (0) 2010 (8) Hip Hop-Rap 06.30.07 Active
06.26.07 Mika 8.75 (3) 2054 (7) Hip Hop-Rap 05.01.09 Active
06.24.07 Bulgarian Child 8.50 (1) 2105 (8) Hip Hop-Rap 09.09.09 Active
06.08.07 You Must Think First (LIOLI) 8.75 (2) 2132 (2) Hip Hop-Rap 06.30.07 Active
06.08.07 Rock The Place W/ Epidemic & J Murda 0.00 (0) 2217 (8) Hip Hop-Rap 08.16.09 Active
06.06.07 Rollin' Deep 8.63 (4) 2684 (4) Hip Hop-Rap 06.28.07 Active
06.03.07 Times Fade 7.75 (2) 2333 (9) Hip Hop-Rap 09.11.07 Active
06.03.07 Waterfall 0.00 (0) 1895 (3) Electropop 01.28.16 Active
05.06.07 Through The Ears 0.00 (0) 2074 (7) Electropop 11.01.07 Active
05.04.07 Halo 0.00 (0) 1843 (4) Electropop 05.06.07 Active
05.04.07 By The Far 0.00 (0) 2210 (4) Dub 07.01.07 Active
04.21.07 Beware Of All Strangers 8.58 (3) 2641 (13) Hip Hop-Rap 10.06.07 Active
04.11.07 Jarret 0.00 (0) 2237 (5) Hip Hop-Rap 04.19.07 Active
04.11.07 Jazz-A-Ma-Tazz 8.58 (3) 2255 (5) Trip Hop 02.26.09 Active
04.09.07 Harry Sax Feat. Chief Thunder Bear 8.69 (4) 2449 (4) Funk 09.08.07 Active
04.03.07 The Boss feat. Jordan 9.00 (3) 2419 (9) Hip Hop-Rap 08.06.08 Active
03.16.07 If Loving You Is Wrong 8.75 (4) 2260 (10) Hip Hop-Rap 01.11.09 Active
03.14.07 Ex Oh Yo 7.75 (1) 1785 (8) Hip Hop-Rap 10.29.07 Active
02.23.07 Song For The Mass 0.00 (0) 1899 (2) Trip Hop 03.05.07 Active
02.20.07 APTOS 0.00 (0) 1842 (1) Hip Hop-Rap 03.18.07 Active
02.03.07 Better Days 7.88 (2) 2406 (6) Hip Hop-Rap 03.26.07 Active
01.22.07 Space And Time w/ MC Burnee 7.00 (1) 1793 (2) Hip Hop-Rap 02.08.07 Active
01.14.07 Supremacy 8.25 (3) 2168 (4) Hip Hop-Rap 01.20.07 Active
01.09.07 Get Started 0.00 (0) 1936 (1) Hip Hop-Rap 03.08.07 Active
12.28.06 SCI FI 5.50 (1) 1881 (0) Hip Hop-Rap N/A Active
12.18.06 831's Finest 8.63 (2) 2111 (2) Hip Hop-Rap 12.21.06 Active
11.30.06 DJ WERD's Anthem 8.25 (3) 2023 (2) Hip Hop-Rap 07.13.12 Active
10.25.06 Ghost Stories 7.75 (1) 1618 (2) Hip Hop-Rap 10.27.06 Active
10.04.06 You And Me 7.25 (1) 2200 (2) Hip Hop-Rap 10.05.06 Active
10.01.06 Suds N Buds 8.00 (1) 2131 (4) Hip Hop-Rap 10.03.06 Active
08.27.06 Shadow Of Your Smile 10.00 (1) 2905 (7) Hip Hop-Rap 06.05.13 Active
08.26.06 BUTTERFLY effect 7.88 (2) 2532 (5) Hip Hop-Rap 02.10.12 Active
08.16.06 Meow Mix Rap 6.17 (2) 5132 (3) Hip Hop-Rap 09.27.07 Active
08.16.06 Thunder - Instrumental 6.75 (1) 2146 (0) Hip Hop-Rap N/A Active
07.31.06 Dont Get Caught 6.13 (2) 2014 (2) Hip Hop-Rap 08.01.06 Active
07.31.06 New Tower - Vocals w/ MC Excorcist! 6.38 (2) 2005 (0) Hip Hop-Rap N/A Active
07.15.06 Hold On 7.25 (1) 2251 (4) Hip Hop-Rap 03.21.07 Active
06.27.06 groove 7.08 (3) 2274 (1) Hip Hop-Rap 01.19.11 Active
06.25.06 The River - Remix 8.00 (2) 2594 (8) Hip Hop-Rap 07.14.06 Active
06.23.06 So Low 5.25 (2) 2351 (1) Hip Hop-Rap 06.24.06 Active
06.23.06 How Do You Feel 8.00 (1) 2494 (2) Hip Hop-Rap 01.19.11 Active
06.22.06 Crunk 8.44 (4) 3993 (3) Hip Hop-Rap 08.16.09 Active
Favorite Songs (116)
Title Artist Date Genre
Independence sammydix 04.25.14 Progressive Rock
Universal Family (ONE Nation) danmurrell 04.17.14 Hip Hop-Rap
CRUISE and bring the NEWS (Dollarman mix) danmurrell 04.17.14 Hip Hop-Rap
YOU GOT IT danmurrell 04.14.14 Hip Hop-Rap
116 SOUL STREET (Apartment 6) danmurrell 04.13.14 Hip Hop-Rap
SOUL Stealing (It Started Here) danmurrell 04.12.14 Hip Hop-Rap
The Lesson danmurrell 04.08.14 Hip Hop-Rap
REAL CALI MAMBO STEVIE_BEATZ 04.04.14 Hip Hop-Rap
DR STRANGELOVE danmurrell 04.04.14 Hip Hop-Rap
6 Million (Just Isn't Enough) danmurrell 04.03.14 Hip Hop-Rap
2000 YEARS (Dollarman Mix) danmurrell 04.01.14 Hip Hop-Rap
ON Stand BY (Part 2) danmurrell 03.22.14 Hip Hop-Rap
ON STAND BY danmurrell 03.22.14 Hip Hop-Rap
Here's another one for you guys preference 03.02.14 Hip Hop-Rap
Resubmit - one I spent some time on preference 02.23.14 Hip Hop-Rap
Sorry, haven't been on in a while preference 02.23.14 Hip Hop-Rap
Race Across Japan Kicbal 02.19.14 Electronic
Regret - Spitlogic (DJWestM Remix) DJWestM 02.17.14 Hip Hop-Rap
Forgotten DJWestM 12.15.13 Hip Hop-Rap
Easy CamoJay 12.14.13 Hip Hop-Rap
Prussian Blue racerat 12.06.13 Downtempo
Illuminant soulcold 08.14.13 Hip Hop-Rap
They Live II prod. by bartsbeatz ThisisLegit 07.28.13 Hip Hop-Rap
Hard times DJWestM 06.28.13 Ballad
MJ45032 - Diviner's track using Michael's beat Diviner 06.25.13 Breakbeat
'Save The Children' TvRicky 06.19.13 Jazz (instrumental)
piece it together egobandit 06.15.13 Rock
Intoxicated Silence (The Rapscallions) feat. Chief Thunder Bear Cheese Pantz 06.04.13 Rock & Roll
time to time egobandit 05.24.13 Psychedelic
A Smart Girl Chief Thunder Bear 05.12.13 Hip Hop-Rap
Measures spitlogic 05.12.13 Hip Hop-Rap
12.26.12 carbon 04.24.13 Art Rock
Joe Paige Returns to India preference 04.21.13 Hip Hop-Rap
The Rush(in) with guitar! (The Rapscallions) Cheese Pantz 04.13.13 Rock (instrumental)
An Eventful Walk. Fire_Angel 04.13.13 Piano
Mechanical Memories PrototypeEightyOne 03.28.13 Hip Hop-Rap
I Hope One Day Diviner 11.02.12 Dub
Choose spitlogic 10.23.12 Hip Hop-Rap
bodh gaya carbon 10.21.12 Art Rock
A Rubber Ball's Day Off shavingronaldscar 09.30.12 Breakbeat
Hail Tubby bud 07.07.12 Dub
Doors spitlogic 07.07.12 Hip Hop-Rap
10,000 Marbles shavingronaldscar 04.07.12 Dub
ignore again just a beat preference 03.05.12 Hip Hop-Rap
Kiss my Rings Chief Thunder Bear 12.13.11 Hip Hop-Rap
Mac til Midnight (Traffic Jam) Cheese Pantz 12.12.11 Rock (instrumental)
Rainbow Sir Bass 11.08.11 Hip Hop-Rap
terrible song preference 03.06.11 Hip Hop-Rap
Fight'or'Flight bchambes 02.17.11 Drum n Bass
Cold Mantric shavingronaldscar 12.19.10 Jungle
Hip Hop Apologetics preference 06.09.10 Hip Hop-Rap
Wayward Thoughts (back from rehab!) preference 06.02.10 Hip Hop-Rap
Crossover Skean 02.20.10 Dance-Club
Wanda's Coconuts rufusswan 12.06.09 Jungle
resurrect skwalz 11.01.09 Hip Hop-Rap
Living the life willbill808 10.17.09 Hip Hop-Rap
Me and You. preference 09.29.09 Hip Hop-Rap
Verbal Watlz feat. Fresh Master Def spitlogic 08.10.09 Hip Hop-Rap
Peace willbill808 07.30.09 Hip Hop-Rap
smokin jaynineooooo 06.26.09 Hip Hop-Rap
Its The French Toast(Colab W/WillBill808) Dj French Toast 05.31.09 Hip Hop-Rap
Rain Rain [vox/ Linda Courtien] Electric Lobster 08.10.08 Trip Hop
jiven flutes Stevie J 11.24.07 Hip Hop-Rap
Unfinished Beat-6 jamminben 11.12.07 Hip Hop-Rap
Life(Colab W/ Spitlogic and Stevie J) Dj French Toast 10.29.07 Hip Hop-Rap
Hiphop is Art Dj French Toast 10.26.07 Hip Hop-Rap
Outa Breath Dj French Toast 10.14.07 Hip Hop-Rap
a beat Stevie J 10.06.07 Hip Hop-Rap
I grew an extra set of balls on my left asscheek kevinjones420 09.29.07 Comedy-Satire-Parody
Mic Minister(Mike2,Werd,Spitlogic) Dj French Toast 09.24.07 Hip Hop-Rap
Black Is lookwhosbad318 09.20.07 Hip Hop-Rap
95003 bITCH zoswater22 09.10.07 Hip Hop-Rap
Funk Wit Me (With Music by Bud ) Dj French Toast 09.06.07 Funk
Regret (Remix) spitlogic 09.02.07 Hip Hop-Rap
Marine Bio-Hazardous zoswater22 09.08.07 Hip Hop-Rap
Pushing Limits ynot 08.30.07 Hip Hop-Rap
Break it on down Dj French Toast 08.28.07 Hip Hop-Rap
Sneak Attack DJ WERD 08.20.07 Hip Hop-Rap
joan 82 Stevie J 08.19.07 Hip Hop-Rap
Sonido Chido DaroMode 08.12.07 Hip Hop-Rap
Renaissance scrolls Stevie J 08.12.07 Hip Hop-Rap
Do I Feel Lucky feat. DJ Werd Cheese Pantz 08.15.07 Experimental
voice of isreal Stevie J 08.05.07 Hip Hop-Rap
Asava (Loves Beats) w/Angela-Maria Plethora Diviner 07.29.07 Breakbeat
MC Chaiba - Wat Ga Je Doen chaibarecz 07.26.07 Hip Hop-Rap
Space Rapp German Elekktro Pop 07.17.07 Hip Hop-Rap
Weaponz Roll 07.16.07 Hip Hop-Rap
Butta' Chief Thunder Bear 07.11.07 Rhythm and Blues
E.J's Groove art 07.09.07 Breakbeat
PrepCook PrepCook 07.08.07 Hip Hop-Rap
March On art 07.06.07 Drum n Bass
GRINDIN HARD SOLDIERZ 07.06.07 Hip Hop-Rap
Head up kid(colab W/Dj werd) Dj French Toast 06.27.07 Hip Hop-Rap
L.O.L.@LIOLI Diviner 06.26.07 Experimental
DISCONNECTED (chilledbeats) Ghost -05 06.04.07 Drum n Bass
Where Will It Lead LIOLI Vic Holman 05.23.07 Art Rock
Freedom spitlogic 05.09.07 Hip Hop-Rap
AfricanFullMoon vbluesky 04.18.07 Ethnic-International
We Can Do More djdeewreck 04.14.07 Hip Hop-Rap
april-3-2007-instrumental CogniPhonics 04.03.07 Hip Hop-Rap
Tony and Ben jamminben 02.04.07 Hip Hop-Rap
The Bells (Original RMX) [Non-Commercial Mix] SEAC99 01.05.07 Trance
Ghetto Life feat. D-OME Self Only Music 11.28.06 Breakbeat
He's Laughing Epic_Cosmos 10.05.06 Hip Hop-Rap
In My Heart Epic_Cosmos 10.01.06 Hip Hop-Rap
Strangers til we die I.G.M. 06.21.06 Acoustic
Steel Finga spitlogic 06.21.06 Drum n Bass
Regret spitlogic 06.20.06 Hip Hop-Rap
childish mentality macnut 06.18.06 Hip Hop-Rap
Those Lonely Nights Professor X 06.16.06 Hip Hop-Rap
el Sol (Stargazing Below) esimmens08 06.08.06 Hip Hop-Rap
The Watch for Agamemnon Bubowski 05.24.06 Classical
What's wrong, what's right ( crunk version) CR 01.15.06 Hip Hop-Rap
Dubmission (deeper mix) 1 a.m. 12.17.05 Dub
Pete's Funky Barstool bryanjbenting 10.22.05 Hip Hop-Rap
MacJammer's Tribute Mr. S 06.28.05 Hip Hop-Rap
Favorite MacJammers (22)
Fans (33)
Music Background listening as an act of love.
Music Skills breakin poppin lockin classes and performances
Music Hardware 2 turntables & a mixer computer keyboard house
Music Software Garage Band version 6.0.4 Audacity: http://audacity.sourceforge.net Mixxx: http://mixxx.org Adobe AfterEffects for time remapping. sample with soundflower channel: http://cycling74.com/soundflower-landing-page/
Keywords peace, werd, dj, yo, beats, bass, hip, hop, instrumental, scratch, 808, electro, step, snare, dub, elements, thanks